createdAt,value
2022-08-14T00:01:11.514Z,13.10
2022-08-14T00:03:40.602Z,14.50
2022-08-14T00:06:13.855Z,15.13
2022-08-14T00:08:53.034Z,12.93
2022-08-14T00:11:20.301Z,10.20
2022-08-14T00:13:52.572Z,12.57
2022-08-14T00:16:41.027Z,17.30
2022-08-14T00:19:19.046Z,12.00
2022-08-14T00:21:47.724Z,13.32
2022-08-14T00:24:23.165Z,11.02
2022-08-14T00:26:56.499Z,15.38
2022-08-14T00:29:25.482Z,11.27
2022-08-14T00:31:56.521Z,14.65
2022-08-14T00:34:36.507Z,12.40
2022-08-14T00:37:05.292Z,12.48
2022-08-14T00:39:33.094Z,11.45
2022-08-14T00:42:01.089Z,11.55
2022-08-14T00:44:32.283Z,15.40
2022-08-14T00:47:02.506Z,12.10
2022-08-14T00:49:30.381Z,11.98
2022-08-14T00:52:05.741Z,14.93
2022-08-14T00:54:35.043Z,13.40
2022-08-14T00:57:03.190Z,11.60
2022-08-14T00:59:30.742Z,12.82
2022-08-14T01:02:00.477Z,14.07
2022-08-14T01:04:38.160Z,10.57
2022-08-14T01:07:18.791Z,13.30
2022-08-14T01:09:47.977Z,13.50
2022-08-14T01:12:26.902Z,13.40
2022-08-14T01:14:58.600Z,14.13
2022-08-14T01:17:27.242Z,11.18
2022-08-14T01:19:56.203Z,13.00
2022-08-14T01:22:26.841Z,11.15
2022-08-14T01:24:57.442Z,13.18
2022-08-14T01:27:25.299Z,15.68
2022-08-14T01:30:01.081Z,10.98
2022-08-14T01:32:37.509Z,12.82
2022-08-14T01:35:18.510Z,10.70
2022-08-14T01:37:59.987Z,14.23
2022-08-14T01:40:36.998Z,13.07
2022-08-14T01:43:11.504Z,13.65
2022-08-14T01:45:40.239Z,11.25
2022-08-14T01:48:13.355Z,12.55
2022-08-14T01:50:42.740Z,11.43
2022-08-14T01:53:13.680Z,13.27
2022-08-14T01:55:42.240Z,12.00
2022-08-14T01:58:19.339Z,12.85
2022-08-14T02:00:50.427Z,14.45
2022-08-14T02:03:17.643Z,13.48
2022-08-14T02:05:44.913Z,14.57
2022-08-14T02:08:13.932Z,16.08
2022-08-14T02:10:46.965Z,13.65
2022-08-14T02:13:16.455Z,11.88
2022-08-14T02:15:44.608Z,12.82
2022-08-14T02:18:15.181Z,17.60
2022-08-14T02:20:43.074Z,18.17
2022-08-14T02:23:11.587Z,13.27
2022-08-14T02:25:41.614Z,12.85
2022-08-14T02:28:20.124Z,11.82
2022-08-14T02:30:58.393Z,18.33
2022-08-14T02:33:29.454Z,14.55
2022-08-14T02:36:44.141Z,15.88
2022-08-14T02:38:54.497Z,12.90
2022-08-14T02:41:28.482Z,11.35
2022-08-14T02:44:00.834Z,14.77
2022-08-14T02:46:32.135Z,11.90
2022-08-14T02:49:03.389Z,12.73
2022-08-14T02:51:34.624Z,16.40
2022-08-14T02:54:03.562Z,12.25
2022-08-14T02:57:13.739Z,13.10
2022-08-14T02:59:23.997Z,13.50
2022-08-14T03:01:57.033Z,14.52
2022-08-14T03:04:25.323Z,11.23
2022-08-14T03:07:06.367Z,13.13
2022-08-14T03:10:26.628Z,10.77
2022-08-14T03:12:32.445Z,10.77
2022-08-14T03:15:01.572Z,14.13
2022-08-14T03:17:31.589Z,12.57
2022-08-14T03:20:11.300Z,12.25
2022-08-14T03:22:41.878Z,17.85
2022-08-14T03:25:10.620Z,13.68
2022-08-14T03:27:48.228Z,18.67
2022-08-14T03:30:40.040Z,12.30
2022-08-14T03:33:10.977Z,15.43
2022-08-14T03:36:05.279Z,15.18
2022-08-14T03:39:13.081Z,15.65
2022-08-14T03:41:18.905Z,14.45
2022-08-14T03:43:57.162Z,12.27
2022-08-14T03:46:51.906Z,13.23
2022-08-14T03:49:24.226Z,13.98
2022-08-14T03:51:57.760Z,15.27
2022-08-14T03:54:25.756Z,11.23
2022-08-14T03:56:53.600Z,11.68
2022-08-14T03:59:23.428Z,12.30
2022-08-14T04:01:58.075Z,11.90
2022-08-14T04:04:29.313Z,18.00
2022-08-14T04:06:59.155Z,11.90
2022-08-14T04:09:27.312Z,13.35
2022-08-14T04:11:58.040Z,11.88
2022-08-14T04:14:28.980Z,13.32
2022-08-14T04:16:56.797Z,12.95
2022-08-14T04:19:24.753Z,12.20
2022-08-14T04:22:04.011Z,13.52
2022-08-14T04:24:38.415Z,15.95
2022-08-14T04:27:09.677Z,14.90
2022-08-14T04:29:42.523Z,15.10
2022-08-14T04:32:58.019Z,17.23
2022-08-14T04:34:59.051Z,13.32
2022-08-14T04:37:27.206Z,12.13
2022-08-14T04:39:57.873Z,12.95
2022-08-14T04:42:27.067Z,14.00
2022-08-14T04:45:00.846Z,12.75
2022-08-14T04:47:30.732Z,12.55
2022-08-14T04:49:58.576Z,14.57
2022-08-14T04:52:26.732Z,14.45
2022-08-14T04:54:54.556Z,13.15
2022-08-14T04:57:22.926Z,13.95
2022-08-14T04:59:51.235Z,14.15
2022-08-14T05:02:22.287Z,15.25
2022-08-14T05:04:57.433Z,16.60
2022-08-14T05:07:54.453Z,15.30
2022-08-14T05:10:16.782Z,13.77
2022-08-14T05:15:39.506Z,13.57
2022-08-14T05:18:17.527Z,13.23
2022-08-14T05:21:59.859Z,14.50
2022-08-14T05:23:50.597Z,15.05
2022-08-14T05:26:18.732Z,14.23
2022-08-14T05:28:46.585Z,26.17
2022-08-14T05:31:20.537Z,17.15
2022-08-14T05:33:54.622Z,13.65
2022-08-14T05:36:24.172Z,13.55
2022-08-14T05:38:53.341Z,16.15
2022-08-14T05:41:21.858Z,15.10
2022-08-14T05:43:49.914Z,14.77
2022-08-14T05:46:20.943Z,16.27
2022-08-14T05:48:54.246Z,15.43
2022-08-14T05:51:23.016Z,17.00
2022-08-14T05:54:00.314Z,15.63
2022-08-14T05:56:37.352Z,15.00
2022-08-14T05:59:05.156Z,16.25
2022-08-14T06:01:33.612Z,15.50
2022-08-14T06:04:05.063Z,14.50
2022-08-14T06:06:38.135Z,14.50
2022-08-14T06:09:06.412Z,17.00
2022-08-14T06:11:38.452Z,17.08
2022-08-14T06:14:12.400Z,15.75
2022-08-14T06:16:50.087Z,15.05
2022-08-14T06:19:23.134Z,15.68
2022-08-14T06:21:58.144Z,15.05
2022-08-14T06:24:26.680Z,14.57
2022-08-14T06:26:56.717Z,15.30
2022-08-14T06:29:32.317Z,16.98
2022-08-14T06:32:36.941Z,15.77
2022-08-14T06:35:03.559Z,17.08
2022-08-14T06:37:43.434Z,14.23
2022-08-14T06:40:25.621Z,18.58
2022-08-14T06:42:56.424Z,13.60
2022-08-14T06:45:26.123Z,15.10
2022-08-14T06:47:54.277Z,14.10
2022-08-14T06:50:28.205Z,15.38
2022-08-14T06:52:56.784Z,13.97
2022-08-14T06:55:27.838Z,14.82
2022-08-14T06:57:57.573Z,15.52
2022-08-14T07:00:31.100Z,13.77
2022-08-14T07:03:00.130Z,14.20
2022-08-14T07:05:30.820Z,13.82
2022-08-14T07:07:58.561Z,13.57
2022-08-14T07:10:25.936Z,14.57
2022-08-14T07:13:01.015Z,14.27
2022-08-14T07:15:32.471Z,17.83
2022-08-14T07:18:01.782Z,15.43
2022-08-14T07:20:32.500Z,13.38
2022-08-14T07:23:08.055Z,12.75
2022-08-14T07:25:38.391Z,13.60
2022-08-14T07:28:20.822Z,16.88
2022-08-14T07:30:51.986Z,12.85
2022-08-14T07:33:20.787Z,15.88
2022-08-14T07:35:59.521Z,15.15
2022-08-14T07:38:33.598Z,13.48
2022-08-14T07:41:06.941Z,14.55
2022-08-14T07:43:44.006Z,15.63
2022-08-14T07:46:15.529Z,13.77
2022-08-14T07:48:49.633Z,17.02
2022-08-14T07:51:22.885Z,12.82
2022-08-14T07:53:57.218Z,14.30
2022-08-14T07:56:47.369Z,11.75
2022-08-14T07:59:13.163Z,13.93
2022-08-14T08:01:48.271Z,11.48
2022-08-14T08:04:25.255Z,12.85
2022-08-14T08:06:56.519Z,11.60
2022-08-14T08:09:32.026Z,13.48
2022-08-14T08:12:04.892Z,14.35
2022-08-14T08:14:56.997Z,13.90
2022-08-14T08:17:24.065Z,11.02
2022-08-14T08:19:51.934Z,12.82
2022-08-14T08:22:21.364Z,12.18
2022-08-14T08:24:50.291Z,11.30
2022-08-14T08:27:19.701Z,12.32
2022-08-14T08:29:50.903Z,12.50
2022-08-14T08:32:19.944Z,11.98
2022-08-14T08:34:47.973Z,10.80
2022-08-14T08:37:16.683Z,11.68
2022-08-14T08:40:03.120Z,11.95
2022-08-14T08:42:41.256Z,15.27
2022-08-14T08:45:15.689Z,14.38
2022-08-14T08:47:46.579Z,11.98
2022-08-14T08:50:31.109Z,15.50
2022-08-14T08:53:02.026Z,11.10
2022-08-14T08:55:35.232Z,12.00
2022-08-14T08:58:05.650Z,9.95
2022-08-14T09:00:48.743Z,10.25
2022-08-14T09:03:20.291Z,11.55
2022-08-14T09:05:53.952Z,9.70
2022-08-14T09:08:30.928Z,10.10
2022-08-14T09:11:19.110Z,11.50
2022-08-14T09:13:49.946Z,10.40
2022-08-14T09:16:20.963Z,10.77
2022-08-14T09:18:50.378Z,10.52
2022-08-14T09:21:23.896Z,10.15
2022-08-14T09:24:29.289Z,12.20
2022-08-14T09:26:44.162Z,11.93
2022-08-14T09:29:18.091Z,9.55
2022-08-14T09:31:57.365Z,10.13
2022-08-14T09:34:50.892Z,12.77
2022-08-14T09:37:40.069Z,10.27
2022-08-14T09:40:21.219Z,10.85
2022-08-14T09:43:02.997Z,12.77
2022-08-14T09:45:40.083Z,13.60
2022-08-14T09:48:29.838Z,12.60
2022-08-14T09:54:18.578Z,12.70
2022-08-14T09:56:30.402Z,11.43
2022-08-14T09:59:12.069Z,12.05
2022-08-14T10:01:46.067Z,11.53
2022-08-14T10:04:34.769Z,10.98
2022-08-14T10:07:06.020Z,13.68
2022-08-14T10:10:00.542Z,11.50
2022-08-14T10:12:47.044Z,11.43
2022-08-14T10:15:19.802Z,10.38
2022-08-14T10:17:47.644Z,13.38
2022-08-14T10:20:40.891Z,11.48
2022-08-14T10:23:16.101Z,10.02
2022-08-14T10:25:45.338Z,9.90
2022-08-14T10:28:39.170Z,11.60
2022-08-14T10:31:02.260Z,10.60
2022-08-14T10:33:32.344Z,9.98
2022-08-14T10:36:00.743Z,10.93
2022-08-14T10:38:28.946Z,11.60
2022-08-14T10:41:10.615Z,11.05
2022-08-14T10:43:37.975Z,10.75
2022-08-14T10:47:36.655Z,10.05
2022-08-14T10:49:02.225Z,10.93
2022-08-14T10:51:36.122Z,11.32
2022-08-14T10:54:17.017Z,9.88
2022-08-14T10:56:56.425Z,9.95
2022-08-14T10:59:23.708Z,9.80
2022-08-14T11:02:03.445Z,9.70
2022-08-14T11:04:31.185Z,9.80
2022-08-14T11:06:58.797Z,9.98
2022-08-14T11:09:31.840Z,10.82
2022-08-14T11:12:33.927Z,9.48
2022-08-14T11:14:58.879Z,10.23
2022-08-14T11:17:32.177Z,10.73
2022-08-14T11:20:03.153Z,10.60
2022-08-14T11:22:55.605Z,11.15
2022-08-14T11:25:20.165Z,9.52
2022-08-14T11:27:51.493Z,10.35
2022-08-14T11:30:51.367Z,10.85
2022-08-14T11:33:11.850Z,10.18
2022-08-14T11:35:44.240Z,9.75
2022-08-14T11:38:17.012Z,13.57
2022-08-14T11:40:46.904Z,10.45
2022-08-14T11:43:15.415Z,9.68
2022-08-14T11:45:46.733Z,12.10
2022-08-14T11:49:04.094Z,11.13
2022-08-14T11:51:13.676Z,9.43
2022-08-14T11:53:42.184Z,10.10
2022-08-14T11:56:10.996Z,11.05
2022-08-14T11:58:39.027Z,9.75
2022-08-14T12:01:07.705Z,9.60
2022-08-14T12:03:52.343Z,8.73
2022-08-14T12:06:28.496Z,12.07
2022-08-14T12:09:08.609Z,11.20
2022-08-14T12:11:47.021Z,11.38
2022-08-14T12:14:31.066Z,10.30
2022-08-14T12:17:04.846Z,9.60
2022-08-14T12:19:44.156Z,9.57
2022-08-14T12:22:13.272Z,12.40
2022-08-14T12:24:57.164Z,9.77
2022-08-14T12:27:37.855Z,9.57
2022-08-14T12:30:12.986Z,9.52
2022-08-14T12:32:41.785Z,11.70
2022-08-14T12:35:11.264Z,8.60
2022-08-14T12:37:40.041Z,9.75
2022-08-14T12:40:12.991Z,10.50
2022-08-14T12:42:47.508Z,9.38
2022-08-14T12:45:31.044Z,10.63
2022-08-14T12:48:01.586Z,9.60
2022-08-14T12:50:51.173Z,8.93
2022-08-14T12:53:18.875Z,9.93
2022-08-14T12:56:18.437Z,9.93
2022-08-14T12:58:52.533Z,9.60
2022-08-14T13:01:21.470Z,8.65
2022-08-14T13:03:49.062Z,10.15
2022-08-14T13:06:20.742Z,9.30
2022-08-14T13:08:53.184Z,8.98
2022-08-14T13:11:24.351Z,8.88
2022-08-14T13:13:58.204Z,9.20
2022-08-14T13:16:33.518Z,9.68
2022-08-14T13:19:02.883Z,9.20
2022-08-14T13:22:05.011Z,9.90
2022-08-14T13:24:21.393Z,10.43
2022-08-14T13:26:51.351Z,9.18
2022-08-14T13:29:23.295Z,10.13
2022-08-14T13:31:53.115Z,10.07
2022-08-14T13:34:24.192Z,9.63
2022-08-14T13:37:03.632Z,8.27
2022-08-14T13:39:31.413Z,9.43
2022-08-14T13:42:08.182Z,9.52
2022-08-14T13:44:37.761Z,8.77
2022-08-14T13:47:09.909Z,9.20
2022-08-14T13:49:37.103Z,10.68
2022-08-14T13:52:48.148Z,8.70
2022-08-14T13:55:00.334Z,8.32
2022-08-14T13:57:32.489Z,8.88
2022-08-14T14:00:02.466Z,8.95
2022-08-14T14:02:34.039Z,9.00
2022-08-14T14:05:03.218Z,9.85
2022-08-14T14:07:34.522Z,9.80
2022-08-14T14:10:09.276Z,8.40
2022-08-14T14:12:41.446Z,8.35
2022-08-14T14:15:11.846Z,9.95
2022-08-14T14:17:40.221Z,8.70
2022-08-14T14:20:10.173Z,8.43
2022-08-14T14:23:01.843Z,9.30
2022-08-14T14:25:45.897Z,9.80
2022-08-14T14:28:23.814Z,11.63
2022-08-14T14:30:56.976Z,10.02
2022-08-14T14:36:21.299Z,8.52
2022-08-14T14:38:54.887Z,8.73
2022-08-14T14:41:24.213Z,8.18
2022-08-14T14:43:54.302Z,9.02
2022-08-14T14:46:36.605Z,9.98
2022-08-14T14:49:07.963Z,8.32
2022-08-14T14:51:41.065Z,8.98
2022-08-14T14:54:14.234Z,13.15
2022-08-14T14:56:52.122Z,9.23
2022-08-14T14:59:21.335Z,8.48
2022-08-14T15:01:50.636Z,8.77
2022-08-14T15:04:19.853Z,9.57
2022-08-14T15:06:48.482Z,8.35
2022-08-14T15:09:18.416Z,9.57
2022-08-14T15:11:47.973Z,9.23
2022-08-14T15:14:55.748Z,8.25
2022-08-14T15:17:02.837Z,8.38
2022-08-14T15:19:30.740Z,9.60
2022-08-14T15:21:58.272Z,8.77
2022-08-14T15:24:27.691Z,11.38
2022-08-14T15:26:55.826Z,9.65
2022-08-14T15:29:23.021Z,8.68
2022-08-14T15:31:53.974Z,11.45
2022-08-14T15:34:44.795Z,9.23
2022-08-14T15:37:10.963Z,11.07
2022-08-14T15:39:42.135Z,9.27
2022-08-14T15:42:16.056Z,8.00
2022-08-14T15:44:56.974Z,9.73
2022-08-14T15:47:27.992Z,12.65
2022-08-14T15:49:58.373Z,10.98
2022-08-14T15:52:32.437Z,9.88
2022-08-14T15:55:07.582Z,10.70
2022-08-14T15:57:35.689Z,9.75
2022-08-14T16:00:04.292Z,9.13
2022-08-14T16:02:38.609Z,10.02
2022-08-14T16:05:07.689Z,9.20
2022-08-14T16:07:37.567Z,11.80
2022-08-14T16:10:28.179Z,9.32
2022-08-14T16:12:54.781Z,9.82
2022-08-14T16:15:22.700Z,9.30
2022-08-14T16:17:53.233Z,8.68
2022-08-14T16:20:41.845Z,8.38
2022-08-14T16:23:11.633Z,11.13
2022-08-14T16:25:44.140Z,9.32
2022-08-14T16:28:27.081Z,9.00
2022-08-14T16:30:56.074Z,14.43
2022-08-14T16:33:56.319Z,10.35
2022-08-14T16:36:29.849Z,10.30
2022-08-14T16:39:00.067Z,11.95
2022-08-14T16:41:29.359Z,11.02
2022-08-14T16:44:01.023Z,9.63
2022-08-14T16:46:32.565Z,10.18
2022-08-14T16:49:00.641Z,9.48
2022-08-14T16:51:31.122Z,9.77
2022-08-14T16:56:50.087Z,12.25
2022-08-14T16:59:20.512Z,9.38
2022-08-14T17:02:00.720Z,10.60
2022-08-14T17:04:32.890Z,9.35
2022-08-14T17:07:01.865Z,9.43
2022-08-14T17:09:36.165Z,9.65
2022-08-14T17:12:33.362Z,9.60
2022-08-14T17:15:02.685Z,9.82
2022-08-14T17:17:45.428Z,11.65
2022-08-14T17:20:53.454Z,10.55
2022-08-14T17:23:13.596Z,9.57
2022-08-14T17:25:51.285Z,9.98
2022-08-14T17:28:51.716Z,10.25
2022-08-14T17:31:09.911Z,9.38
2022-08-14T17:33:44.521Z,10.40
2022-08-14T17:36:22.742Z,9.30
2022-08-14T17:38:59.780Z,10.77
2022-08-14T17:41:35.913Z,9.90
2022-08-14T17:44:20.161Z,10.60
2022-08-14T17:46:55.189Z,10.15
2022-08-14T17:49:26.628Z,11.38
2022-08-14T17:51:58.092Z,13.65
2022-08-14T17:54:35.018Z,12.00
2022-08-14T17:57:12.996Z,9.75
2022-08-14T17:59:44.547Z,9.23
2022-08-14T18:02:16.306Z,10.40
2022-08-14T18:04:44.242Z,11.13
2022-08-14T18:07:16.269Z,11.55
2022-08-14T18:09:56.292Z,10.30
2022-08-14T18:12:32.231Z,11.18
2022-08-14T18:15:16.184Z,9.88
2022-08-14T18:17:50.586Z,11.50
2022-08-14T18:21:40.315Z,10.75
2022-08-14T18:23:13.139Z,12.35
2022-08-14T18:25:46.701Z,12.23
2022-08-14T18:28:32.277Z,10.75
2022-08-14T18:31:43.578Z,11.18
2022-08-14T18:34:31.627Z,12.30
2022-08-14T18:37:18.336Z,12.93
2022-08-14T18:40:03.498Z,11.50
2022-08-14T18:42:44.505Z,11.50
2022-08-14T18:45:15.910Z,11.40
2022-08-14T18:48:16.500Z,13.63
2022-08-14T18:50:52.347Z,12.20
2022-08-14T18:53:24.914Z,11.73
2022-08-14T18:55:56.076Z,12.00
2022-08-14T18:58:31.424Z,12.45
2022-08-14T19:01:01.909Z,11.30
2022-08-14T19:03:54.727Z,11.25
2022-08-14T19:06:41.649Z,11.57
2022-08-14T19:09:43.490Z,11.63
2022-08-14T19:12:54.626Z,13.70
2022-08-14T19:15:25.681Z,11.55
2022-08-14T19:18:10.630Z,11.70
2022-08-14T19:20:52.754Z,14.73
2022-08-14T19:23:42.256Z,11.20
2022-08-14T19:26:36.741Z,12.75
2022-08-14T19:29:26.222Z,11.85
2022-08-14T19:32:26.970Z,13.75
2022-08-14T19:34:55.221Z,14.05
2022-08-14T19:37:52.333Z,11.60
2022-08-14T19:40:39.874Z,12.77
2022-08-14T19:43:09.738Z,12.38
2022-08-14T19:45:38.422Z,13.73
2022-08-14T19:48:12.772Z,12.35
2022-08-14T19:50:44.945Z,14.77
2022-08-14T19:53:17.534Z,12.15
2022-08-14T19:55:58.616Z,12.82
2022-08-14T19:58:38.978Z,12.43
2022-08-14T20:01:36.367Z,12.30
2022-08-14T20:04:07.820Z,12.48
2022-08-14T20:06:46.582Z,11.27
2022-08-14T20:11:02.960Z,13.45
2022-08-14T20:12:05.209Z,12.52
2022-08-14T20:14:52.070Z,11.38
2022-08-14T20:17:20.970Z,12.50
2022-08-14T20:19:48.677Z,14.35
2022-08-14T20:22:36.886Z,15.20
2022-08-14T20:25:22.721Z,13.95
2022-08-14T20:27:58.556Z,12.40
2022-08-14T20:30:34.203Z,12.13
2022-08-14T20:33:08.012Z,11.95
2022-08-14T20:35:42.811Z,12.95
2022-08-14T20:38:29.793Z,12.93
2022-08-14T20:41:05.771Z,14.25
2022-08-14T20:43:35.829Z,14.32
2022-08-14T20:46:12.624Z,13.13
2022-08-14T20:48:52.838Z,12.40
2022-08-14T20:51:23.870Z,14.82
2022-08-14T20:54:02.095Z,13.07
2022-08-14T20:56:34.134Z,12.50
2022-08-14T20:59:15.529Z,12.60
2022-08-14T21:01:48.950Z,13.02
2022-08-14T21:04:26.525Z,13.15
2022-08-14T21:07:24.986Z,11.15
2022-08-14T21:10:06.461Z,13.30
2022-08-14T21:12:34.809Z,14.43
2022-08-14T21:15:11.123Z,12.60
2022-08-14T21:17:43.191Z,13.35
2022-08-14T21:20:25.976Z,12.45
2022-08-14T21:22:56.579Z,13.65
2022-08-14T21:25:31.590Z,12.65
2022-08-14T21:28:01.769Z,12.60
2022-08-14T21:30:51.551Z,13.02
2022-08-14T21:33:21.579Z,10.90
2022-08-14T21:35:49.584Z,17.95
2022-08-14T21:38:34.127Z,13.00
2022-08-14T21:41:41.244Z,13.57
2022-08-14T21:43:53.221Z,14.27
2022-08-14T21:46:28.229Z,13.63
2022-08-14T21:48:56.059Z,12.98
2022-08-14T21:51:52.985Z,13.18
2022-08-14T21:54:32.064Z,12.20
2022-08-14T21:57:02.135Z,12.10
2022-08-14T21:59:31.834Z,15.88
2022-08-14T22:02:05.001Z,12.55
2022-08-14T22:04:40.433Z,13.98
2022-08-14T22:07:12.144Z,11.55
2022-08-14T22:09:42.837Z,12.23
2022-08-14T22:12:57.258Z,14.50
2022-08-14T22:15:00.155Z,13.82
2022-08-14T22:17:32.291Z,12.13
2022-08-14T22:20:03.019Z,12.88
2022-08-14T22:22:32.619Z,14.27
2022-08-14T22:25:01.009Z,12.23
2022-08-14T22:27:32.335Z,12.68
2022-08-14T22:30:01.846Z,14.43
2022-08-14T22:32:56.337Z,14.80
2022-08-14T22:35:18.426Z,12.80
2022-08-14T22:38:36.469Z,13.57
2022-08-14T22:41:04.573Z,13.07
2022-08-14T22:43:26.978Z,12.60
2022-08-14T22:45:55.405Z,13.30
2022-08-14T22:48:25.041Z,16.33
2022-08-14T22:50:57.160Z,11.60
2022-08-14T22:53:29.322Z,12.95
2022-08-14T22:55:56.824Z,14.13
2022-08-14T22:58:31.425Z,13.98
2022-08-14T23:01:05.556Z,14.02
2022-08-14T23:03:39.425Z,13.70
2022-08-14T23:07:01.482Z,14.15
2022-08-14T23:09:35.206Z,15.43
2022-08-14T23:11:45.739Z,14.43
2022-08-14T23:14:14.246Z,13.75
2022-08-14T23:16:51.037Z,12.88
2022-08-14T23:19:33.790Z,12.00
2022-08-14T23:22:02.681Z,13.45
2022-08-14T23:24:31.182Z,13.00
2022-08-14T23:26:58.126Z,13.30
2022-08-14T23:29:25.790Z,13.55
2022-08-14T23:31:59.222Z,15.63
2022-08-14T23:34:29.549Z,13.02
2022-08-14T23:36:58.512Z,15.35
2022-08-14T23:39:33.113Z,13.95
2022-08-14T23:42:06.264Z,14.63
2022-08-14T23:44:36.282Z,14.27
2022-08-14T23:47:05.498Z,12.55
2022-08-14T23:50:01.094Z,14.75
2022-08-14T23:53:04.178Z,12.45
2022-08-14T23:55:11.551Z,13.65
2022-08-14T23:57:44.280Z,11.45
